createdAt,value
2023-02-22T11:06:31.234Z,19.90
2023-02-22T12:14:46.257Z,21.90
2023-02-22T12:17:54.318Z,21.40
2023-02-22T12:21:05.037Z,21.00
2023-02-22T12:23:52.337Z,20.80
2023-02-22T12:29:48.910Z,20.20
2023-02-22T12:32:42.624Z,20.30
2023-02-22T12:39:08.059Z,20.00
2023-02-22T12:41:58.289Z,19.80
2023-02-22T12:44:53.938Z,19.60
2023-02-22T12:47:49.370Z,19.50
2023-02-22T12:50:28.536Z,19.20
2023-02-22T12:53:18.019Z,18.90
2023-02-22T12:55:56.604Z,18.80
2023-02-22T12:58:31.669Z,18.90
2023-02-22T13:01:07.023Z,18.60
2023-02-22T13:03:40.141Z,18.40
2023-02-22T13:06:25.894Z,18.20
2023-02-22T13:09:08.897Z,18.30
2023-02-22T13:11:44.579Z,18.30
2023-02-22T13:14:40.396Z,18.30
2023-02-22T13:17:21.212Z,18.10
2023-02-22T13:20:00.740Z,18.00
2023-02-22T13:22:36.267Z,18.00
2023-02-22T13:25:13.719Z,17.80
2023-02-22T13:27:45.027Z,17.60
2023-02-22T13:30:33.848Z,17.70
2023-02-22T13:33:26.297Z,17.50
2023-02-22T13:36:13.872Z,17.60
2023-02-22T13:39:15.368Z,17.50
2023-02-22T13:41:59.118Z,17.50
2023-02-22T13:45:04.355Z,17.50
2023-02-22T13:48:04.464Z,17.50
2023-02-22T13:50:50.408Z,17.40
2023-02-22T13:53:26.041Z,17.40
2023-02-22T13:55:59.778Z,17.40
2023-02-22T13:58:28.724Z,17.40
2023-02-22T14:01:01.132Z,17.30
2023-02-22T14:03:40.963Z,17.30
2023-02-22T14:06:14.040Z,17.30
2023-02-22T14:13:43.664Z,17.30
2023-02-22T14:16:27.140Z,16.90
2023-02-22T14:24:02.915Z,16.90
2023-02-22T14:26:35.600Z,17.00
2023-02-22T14:29:52.203Z,17.00
2023-02-22T14:32:31.106Z,16.90
2023-02-22T14:35:01.856Z,17.00
2023-02-22T14:37:36.385Z,16.90
2023-02-22T14:40:15.485Z,16.90
2023-02-22T14:42:45.199Z,16.80
2023-02-22T14:45:23.766Z,16.80
2023-02-22T14:48:01.121Z,16.70
2023-02-22T14:50:46.066Z,16.70
2023-02-22T14:53:23.857Z,16.20
2023-02-22T14:55:57.303Z,16.10
2023-02-22T14:58:30.640Z,16.20
2023-02-22T15:01:05.502Z,16.00
2023-02-22T15:03:37.600Z,16.00
2023-02-22T15:06:07.506Z,15.90
2023-02-22T15:08:48.634Z,15.90
2023-02-22T15:11:26.390Z,15.80
2023-02-22T15:13:55.862Z,15.80
2023-02-22T15:16:26.285Z,15.60
2023-02-22T15:18:56.982Z,15.70
2023-02-22T15:21:28.107Z,15.70
2023-02-22T15:23:59.370Z,15.60
2023-02-22T15:26:35.270Z,15.50
2023-02-22T15:52:58.038Z,15.20
2023-02-22T15:55:37.360Z,15.00
2023-02-22T15:58:11.174Z,15.00
2023-02-22T16:00:41.451Z,14.90
2023-02-22T16:03:11.034Z,14.70
2023-02-22T16:05:41.975Z,14.90
2023-02-22T16:08:17.936Z,14.80
2023-02-22T16:10:54.372Z,14.80
2023-02-22T16:13:31.472Z,14.70
2023-02-22T16:16:03.005Z,14.70
2023-02-22T16:18:33.798Z,14.70
2023-02-22T16:21:05.197Z,14.70
2023-02-22T16:23:35.490Z,14.60
2023-02-22T16:26:08.135Z,14.60
2023-02-22T16:28:51.924Z,14.50
2023-02-22T16:31:25.338Z,14.50
2023-02-22T16:34:01.299Z,14.40
2023-02-22T16:36:51.969Z,14.40
2023-02-22T16:39:27.106Z,14.30
2023-02-22T16:41:58.337Z,14.20
2023-02-22T16:44:27.856Z,14.10
2023-02-22T16:46:57.044Z,14.00
2023-02-22T16:49:25.611Z,13.90
2023-02-22T16:51:56.036Z,13.70
2023-02-22T16:54:27.190Z,13.50
2023-02-22T16:57:00.289Z,13.30
2023-02-22T16:59:39.426Z,13.20
2023-02-22T17:02:08.247Z,13.00
2023-02-22T17:04:54.581Z,12.70
2023-02-22T17:07:29.781Z,12.70
2023-02-22T17:09:59.217Z,12.50
2023-02-22T17:12:29.882Z,12.30
2023-02-22T17:14:57.880Z,12.20
2023-02-22T17:17:26.514Z,12.20
2023-02-22T17:19:54.956Z,12.00
2023-02-22T17:22:23.787Z,11.80
2023-02-22T17:24:51.683Z,11.70
2023-02-22T17:27:19.621Z,11.70
2023-02-22T17:29:54.181Z,11.60
2023-02-22T17:32:22.167Z,11.30
2023-02-22T17:34:50.211Z,11.30
2023-02-22T17:37:18.236Z,11.30
2023-02-22T17:39:46.157Z,11.20
2023-02-22T17:42:16.793Z,11.20
2023-02-22T17:44:44.808Z,11.20
2023-02-22T17:47:17.425Z,11.10
2023-02-22T17:49:45.312Z,11.00
2023-02-22T17:52:15.608Z,11.00
2023-02-22T17:54:43.691Z,10.90
2023-02-22T17:57:11.921Z,10.90
2023-02-22T17:59:40.685Z,11.00
2023-02-22T18:02:10.588Z,10.90
2023-02-22T18:04:40.456Z,10.90
2023-02-22T18:07:08.403Z,11.00
2023-02-22T18:09:36.727Z,11.00
2023-02-22T18:12:04.827Z,11.00
2023-02-22T18:14:32.798Z,11.00
2023-02-22T18:17:01.424Z,11.10
2023-02-22T18:19:29.320Z,10.90
2023-02-22T18:22:00.272Z,10.90
2023-02-22T18:24:28.403Z,11.00
2023-02-22T18:26:56.582Z,11.00
2023-02-22T18:29:25.220Z,11.10
2023-02-22T18:31:54.198Z,11.00
2023-02-22T18:34:24.865Z,11.00
2023-02-22T18:36:52.972Z,11.00
2023-02-22T18:39:22.525Z,10.90
2023-02-22T18:41:50.494Z,10.90
2023-02-22T18:44:19.255Z,10.90
2023-02-22T18:46:47.226Z,10.90
2023-02-22T18:49:15.326Z,10.90
2023-02-22T18:51:43.672Z,10.90
2023-02-22T18:54:12.870Z,10.80
2023-02-22T18:56:42.157Z,10.80
2023-02-22T18:59:13.123Z,10.70
2023-02-22T19:01:41.774Z,10.70
2023-02-22T19:04:12.544Z,10.70
2023-02-22T19:06:40.645Z,10.60
2023-02-22T19:09:09.365Z,10.50
2023-02-22T19:11:37.879Z,10.50
2023-02-22T19:14:07.853Z,10.50
2023-02-22T19:16:35.717Z,10.50
2023-02-22T19:19:03.771Z,10.50
2023-02-22T19:21:33.269Z,10.40
2023-02-22T19:24:02.003Z,10.50
2023-02-22T19:26:30.289Z,10.50
2023-02-22T19:28:59.758Z,10.50
2023-02-22T19:31:31.088Z,10.50
2023-02-22T19:34:02.617Z,10.50
2023-02-22T19:36:30.900Z,10.50
2023-02-22T19:39:01.544Z,10.60
2023-02-22T19:41:30.185Z,10.50
2023-02-22T19:43:59.038Z,10.50
2023-02-22T19:47:28.709Z,10.50
2023-02-22T20:01:23.025Z,10.50
2023-02-22T20:03:54.148Z,10.50
2023-02-22T20:06:23.047Z,10.50
2023-02-22T20:08:51.108Z,10.50
2023-02-22T20:11:19.634Z,10.60
2023-02-22T20:13:48.674Z,10.60
2023-02-22T20:16:17.201Z,10.60
2023-02-22T20:18:48.382Z,10.60
2023-02-22T20:21:20.702Z,10.60
2023-02-22T20:23:49.046Z,10.60
2023-02-22T20:26:19.629Z,10.60
2023-02-22T20:28:47.999Z,10.60
2023-02-22T20:31:22.840Z,10.70
2023-02-22T20:33:56.364Z,10.60
2023-02-22T20:36:25.182Z,10.60
2023-02-22T20:38:54.739Z,10.60
2023-02-22T20:41:24.823Z,10.80
2023-02-22T20:43:53.762Z,10.60
2023-02-22T20:46:23.321Z,10.60
2023-02-22T20:48:55.612Z,10.60
2023-02-22T20:51:23.900Z,10.60
2023-02-22T20:53:51.839Z,10.80
2023-02-22T20:56:21.862Z,10.60
2023-02-22T20:58:50.618Z,10.60
2023-02-22T21:01:20.821Z,10.70
2023-02-22T21:03:49.741Z,10.60
2023-02-22T21:06:39.838Z,10.70
